createdAt,value
2022-10-05T00:03:11.820Z,98399.44
2022-10-05T00:07:19.439Z,98395.97
2022-10-05T00:11:21.513Z,98385.50
2022-10-05T00:15:23.626Z,98379.47
2022-10-05T00:19:36.701Z,98376.72
2022-10-05T00:23:40.746Z,98367.91
2022-10-05T00:27:45.849Z,98366.97
2022-10-05T00:31:48.473Z,98354.59
2022-10-05T00:35:50.682Z,98337.91
2022-10-05T00:39:52.709Z,98349.91
2022-10-05T00:44:05.538Z,98354.81
2022-10-05T00:48:39.754Z,98358.84
2022-10-05T00:53:26.596Z,98368.28
2022-10-05T00:57:43.924Z,98367.38
2022-10-05T01:02:12.394Z,98371.69
2022-10-05T01:06:44.097Z,98370.09
2022-10-05T01:11:04.001Z,98373.72
2022-10-05T01:15:43.607Z,98380.09
2022-10-05T01:20:36.424Z,98379.50
2022-10-05T01:24:44.404Z,98379.78
2022-10-05T01:28:52.393Z,98380.13
2022-10-05T01:33:25.665Z,98375.22
2022-10-05T01:37:58.161Z,98363.69
2022-10-05T01:42:50.002Z,98351.84
2022-10-05T01:47:03.096Z,98345.38
2022-10-05T01:51:16.565Z,98341.19
2022-10-05T01:55:45.081Z,98331.91
2022-10-05T01:59:53.110Z,98325.94
2022-10-05T02:04:10.564Z,98314.13
2022-10-05T02:08:24.173Z,98312.66
2022-10-05T02:12:30.723Z,98313.63
2022-10-05T02:16:40.382Z,98305.78
2022-10-05T02:20:45.580Z,98294.56
2022-10-05T02:24:53.001Z,98290.06
2022-10-05T02:28:59.922Z,98287.03
2022-10-05T02:33:10.435Z,98284.63
2022-10-05T02:37:43.374Z,98291.59
2022-10-05T02:42:13.523Z,98290.94
2022-10-05T02:46:40.991Z,98284.38
2022-10-05T02:51:04.701Z,98285.91
2022-10-05T02:55:19.486Z,98284.91
2022-10-05T02:59:47.312Z,98299.53
2022-10-05T03:04:01.236Z,98292.47
2022-10-05T03:08:15.335Z,98288.03
2022-10-05T03:12:42.074Z,98303.94
2022-10-05T03:17:19.066Z,98314.41
2022-10-05T03:21:33.149Z,98314.56
2022-10-05T03:25:55.791Z,98305.13
2022-10-05T03:30:18.117Z,98304.47
2022-10-05T03:34:40.000Z,98300.19
2022-10-05T03:39:04.413Z,98302.22
2022-10-05T03:43:41.096Z,98299.88
2022-10-05T03:47:56.640Z,98307.41
2022-10-05T03:52:16.118Z,98299.78
2022-10-05T03:56:31.963Z,98296.44
2022-10-05T04:00:36.810Z,98306.03
2022-10-05T04:04:46.281Z,98300.09
2022-10-05T04:09:07.505Z,98299.31
2022-10-05T04:13:09.805Z,98298.53
2022-10-05T04:17:17.536Z,98307.38
2022-10-05T04:21:24.956Z,98314.56
2022-10-05T04:25:39.463Z,98312.06
2022-10-05T04:29:57.350Z,98307.81
2022-10-05T04:34:12.167Z,98315.72
2022-10-05T04:38:37.257Z,98322.03
2022-10-05T04:42:47.733Z,98317.09
2022-10-05T04:47:12.163Z,98320.13
2022-10-05T04:51:22.083Z,98317.78
2022-10-05T04:55:33.544Z,98324.91
2022-10-05T04:59:54.672Z,98329.53
2022-10-05T05:04:04.324Z,98329.69
2022-10-05T05:08:33.449Z,98325.34
2022-10-05T05:13:06.211Z,98327.97
2022-10-05T05:17:14.770Z,98328.78
2022-10-05T05:21:34.428Z,98335.66
2022-10-05T05:25:42.481Z,98335.53
2022-10-05T05:30:02.796Z,98342.47
2022-10-05T05:34:31.889Z,98340.59
2022-10-05T05:39:11.415Z,98339.66
2022-10-05T05:43:26.584Z,98338.59
2022-10-05T05:47:35.328Z,98336.81
2022-10-05T05:51:45.827Z,98331.47
2022-10-05T05:55:53.727Z,98332.44
2022-10-05T06:00:30.023Z,98333.09
2022-10-05T06:04:45.076Z,98333.88
2022-10-05T06:08:57.480Z,98340.56
2022-10-05T06:13:35.769Z,98338.38
2022-10-05T06:17:44.940Z,98338.19
2022-10-05T06:22:05.831Z,98343.16
2022-10-05T06:26:12.839Z,98353.41
2022-10-05T06:30:17.500Z,98349.34
2022-10-05T06:35:02.374Z,98363.03
2022-10-05T06:39:15.234Z,98356.56
2022-10-05T06:43:34.822Z,98357.47
2022-10-05T06:47:59.423Z,98348.47
2022-10-05T06:52:39.982Z,98355.44
2022-10-05T06:56:52.364Z,98348.56
2022-10-05T07:01:20.648Z,98348.34
2022-10-05T07:05:33.949Z,98352.75
2022-10-05T07:09:41.940Z,98348.34
2022-10-05T07:14:21.820Z,98344.66
2022-10-05T07:18:47.997Z,98345.94
2022-10-05T07:22:55.541Z,98338.97
2022-10-05T07:27:20.990Z,98343.53
2022-10-05T07:31:37.891Z,98337.66
2022-10-05T07:36:31.154Z,98332.03
2022-10-05T07:40:41.840Z,98334.97
2022-10-05T07:45:04.094Z,98343.16
2022-10-05T07:49:06.247Z,98336.91
2022-10-05T07:53:19.708Z,98338.69
2022-10-05T07:57:40.445Z,98341.22
2022-10-05T08:01:48.371Z,98346.44
2022-10-05T08:05:51.118Z,98344.97
2022-10-05T08:10:28.908Z,98346.34
2022-10-05T08:14:46.314Z,98361.31
2022-10-05T08:19:06.696Z,98353.88
2022-10-05T08:23:38.658Z,98345.81
2022-10-05T08:27:56.951Z,98355.22
2022-10-05T08:32:03.615Z,98352.97
2022-10-05T08:36:11.526Z,98350.72
2022-10-05T08:40:21.407Z,98348.19
2022-10-05T08:44:55.944Z,98356.81
2022-10-05T08:49:23.981Z,98355.66
2022-10-05T08:53:33.810Z,98357.03
2022-10-05T08:58:13.268Z,98351.22
2022-10-05T09:02:34.079Z,98346.06
2022-10-05T09:07:01.356Z,98348.59
2022-10-05T09:11:35.859Z,98341.00
2022-10-05T09:16:08.890Z,98344.78
2022-10-05T09:20:37.961Z,98350.09
2022-10-05T09:24:57.980Z,98346.25
2022-10-05T09:29:21.256Z,98345.63
2022-10-05T09:33:40.872Z,98348.31
2022-10-05T09:38:03.123Z,98344.94
2022-10-05T09:42:31.319Z,98345.72
2022-10-05T09:47:01.982Z,98346.41
2022-10-05T09:51:35.157Z,98346.94
2022-10-05T09:55:46.454Z,98344.84
2022-10-05T10:00:10.364Z,98336.66
2022-10-05T10:04:15.300Z,98327.47
2022-10-05T10:08:26.665Z,98329.06
2022-10-05T10:12:53.513Z,98330.28
2022-10-05T10:17:13.786Z,98315.81
2022-10-05T10:21:42.257Z,98318.50
2022-10-05T10:26:36.349Z,98316.09
2022-10-05T10:31:15.794Z,98318.38
2022-10-05T10:35:40.805Z,98317.94
2022-10-05T10:39:58.002Z,98317.91
2022-10-05T10:44:26.706Z,98330.38
2022-10-05T10:48:28.660Z,98322.72
2022-10-05T10:53:10.671Z,98320.22
2022-10-05T10:57:40.609Z,98326.91
2022-10-05T11:02:03.847Z,98320.66
2022-10-05T11:06:07.499Z,98310.56
2022-10-05T11:10:23.325Z,98302.22
2022-10-05T11:14:34.324Z,98295.25
2022-10-05T11:18:48.858Z,98287.97
2022-10-05T11:23:14.325Z,98295.22
2022-10-05T11:27:34.994Z,98293.25
2022-10-05T11:32:15.831Z,98288.66
2022-10-05T11:36:54.710Z,98289.56
2022-10-05T11:41:33.001Z,98269.47
2022-10-05T11:45:56.138Z,98265.66
2022-10-05T11:50:34.500Z,98273.72
2022-10-05T11:55:09.153Z,98266.53
2022-10-05T11:59:15.812Z,98257.88
2022-10-05T12:03:39.258Z,98248.13
2022-10-05T12:08:01.927Z,98266.78
2022-10-05T12:12:29.567Z,98251.28
2022-10-05T12:16:41.804Z,98253.00
2022-10-05T12:20:55.808Z,98253.22
2022-10-05T12:25:03.889Z,98242.38
2022-10-05T12:29:39.689Z,98247.22
2022-10-05T12:34:01.844Z,98242.13
2022-10-05T12:38:17.368Z,98235.66
2022-10-05T12:42:30.021Z,98235.03
2022-10-05T12:47:02.129Z,98230.13
2022-10-05T12:51:16.781Z,98222.50
2022-10-05T12:55:27.460Z,98221.97
2022-10-05T12:59:44.409Z,98219.53
2022-10-05T13:03:51.339Z,98216.09
2022-10-05T13:08:12.856Z,98216.28
2022-10-05T13:12:38.985Z,98204.81
2022-10-05T13:16:55.831Z,98207.03
2022-10-05T13:21:18.571Z,98191.38
2022-10-05T13:25:29.058Z,98196.06
2022-10-05T13:29:58.837Z,98188.00
2022-10-05T13:34:08.124Z,98182.44
2022-10-05T13:38:28.977Z,98175.22
2022-10-05T13:42:42.968Z,98184.06
2022-10-05T13:46:58.749Z,98192.03
2022-10-05T13:51:18.380Z,98197.34
2022-10-05T13:55:51.984Z,98192.22
2022-10-05T13:59:58.076Z,98187.16
2022-10-05T14:04:24.490Z,98196.91
2022-10-05T14:08:36.571Z,98184.94
2022-10-05T14:12:45.686Z,98184.22
2022-10-05T14:16:53.774Z,98186.94
2022-10-05T14:21:17.011Z,98183.53
2022-10-05T14:25:19.886Z,98177.59
2022-10-05T14:29:38.267Z,98183.75
2022-10-05T14:33:40.784Z,98165.06
2022-10-05T14:38:02.384Z,98164.31
2022-10-05T14:42:15.191Z,98163.59
2022-10-05T14:46:20.672Z,98157.28
2022-10-05T14:50:29.412Z,98156.34
2022-10-05T14:54:57.353Z,98152.97
2022-10-05T14:59:04.114Z,98154.16
2022-10-05T15:03:31.246Z,98146.41
2022-10-05T15:07:39.638Z,98139.94
2022-10-05T15:11:46.510Z,98129.44
2022-10-05T15:15:57.714Z,98128.81
2022-10-05T15:20:10.421Z,98122.78
2022-10-05T15:24:26.342Z,98105.25
2022-10-05T15:28:34.585Z,98105.25
2022-10-05T15:32:43.070Z,98106.19
2022-10-05T15:37:16.763Z,98103.34
2022-10-05T15:41:40.282Z,98108.66
2022-10-05T15:46:10.429Z,98116.09
2022-10-05T15:50:12.537Z,98120.13
2022-10-05T15:54:41.766Z,98112.72
2022-10-05T15:58:55.437Z,98110.84
2022-10-05T16:03:18.952Z,98117.88
2022-10-05T16:07:46.457Z,98109.00
2022-10-05T16:12:09.786Z,98108.00
2022-10-05T16:16:24.830Z,98096.63
2022-10-05T16:21:14.036Z,98104.50
2022-10-05T16:25:31.409Z,98102.72
2022-10-05T16:29:52.590Z,98105.13
2022-10-05T16:34:17.182Z,98113.78
2022-10-05T16:39:07.447Z,98121.28
2022-10-05T16:43:45.924Z,98106.13
2022-10-05T16:48:08.853Z,98121.56
2022-10-05T16:52:18.132Z,98101.72
2022-10-05T16:56:25.241Z,98125.22
2022-10-05T17:00:39.514Z,98127.41
2022-10-05T17:05:03.312Z,98127.63
2022-10-05T17:09:32.967Z,98154.47
2022-10-05T17:13:57.149Z,98150.75
2022-10-05T17:18:06.706Z,98157.47
2022-10-05T17:22:18.140Z,98164.09
2022-10-05T17:26:22.861Z,98168.97
2022-10-05T17:31:06.038Z,98173.13
2022-10-05T17:35:18.911Z,98168.09
2022-10-05T17:39:23.217Z,98193.56
2022-10-05T17:43:28.427Z,98201.41
2022-10-05T17:47:55.510Z,98205.84
2022-10-05T17:52:17.725Z,98221.75
2022-10-05T17:56:22.029Z,98231.94
2022-10-05T18:00:41.879Z,98244.25
2022-10-05T18:04:51.463Z,98250.78
2022-10-05T18:09:20.880Z,98256.34
2022-10-05T18:13:36.802Z,98258.44
2022-10-05T18:17:57.251Z,98255.34
2022-10-05T18:22:00.862Z,98250.41
2022-10-05T18:26:20.245Z,98257.72
2022-10-05T18:30:24.948Z,98265.84
2022-10-05T18:34:36.893Z,98263.38
2022-10-05T18:38:52.834Z,98266.44
2022-10-05T18:43:50.990Z,98261.22
2022-10-05T18:48:19.531Z,98275.50
2022-10-05T18:52:47.117Z,98288.81
2022-10-05T18:56:50.800Z,98289.69
2022-10-05T19:01:04.863Z,98297.41
2022-10-05T19:05:48.717Z,98301.13
2022-10-05T19:10:08.827Z,98314.78
2022-10-05T19:14:21.432Z,98322.94
2022-10-05T19:18:39.804Z,98327.09
2022-10-05T19:23:12.818Z,98327.47
2022-10-05T19:27:46.447Z,98336.84
2022-10-05T19:31:55.015Z,98345.81
2022-10-05T19:36:02.767Z,98347.91
2022-10-05T19:40:15.897Z,98347.13
2022-10-05T19:44:36.195Z,98355.19
2022-10-05T19:48:44.402Z,98362.44
2022-10-05T19:52:51.965Z,98363.66
2022-10-05T19:56:55.017Z,98366.41
2022-10-05T20:01:06.741Z,98367.34
2022-10-05T20:05:08.942Z,98366.81
2022-10-05T20:09:21.586Z,98379.53
2022-10-05T20:13:23.601Z,98377.16
2022-10-05T20:17:45.942Z,98392.31
2022-10-05T20:21:50.993Z,98393.44
2022-10-05T20:26:11.520Z,98396.16
2022-10-05T20:30:19.115Z,98396.25
2022-10-05T20:34:22.102Z,98400.88
2022-10-05T20:38:24.382Z,98409.94
2022-10-05T20:42:26.692Z,98422.78
2022-10-05T20:46:30.928Z,98428.53
2022-10-05T20:50:33.146Z,98436.78
2022-10-05T20:54:36.397Z,98434.34
2022-10-05T20:58:38.507Z,98425.69
2022-10-05T21:02:40.621Z,98419.00
2022-10-05T21:06:43.682Z,98427.19
2022-10-05T21:10:45.711Z,98444.13
2022-10-05T21:14:47.791Z,98448.72
2022-10-05T21:18:49.837Z,98456.84
2022-10-05T21:22:51.836Z,98448.91
2022-10-05T21:26:56.737Z,98458.88
2022-10-05T21:30:58.780Z,98455.03
2022-10-05T21:35:00.772Z,98444.84
2022-10-05T21:39:02.949Z,98457.44
2022-10-05T21:43:05.048Z,98464.41
2022-10-05T21:47:07.101Z,98463.47
2022-10-05T21:51:13.325Z,98472.09
2022-10-05T21:55:16.714Z,98472.34
2022-10-05T21:59:22.059Z,98474.22
2022-10-05T22:03:24.180Z,98479.84
2022-10-05T22:07:26.265Z,98481.31
2022-10-05T22:11:29.055Z,98483.38
2022-10-05T22:15:31.661Z,98488.97
2022-10-05T22:19:33.668Z,98501.41
2022-10-05T22:23:35.957Z,98507.66
2022-10-05T22:27:38.183Z,98502.44
2022-10-05T22:31:40.601Z,98498.09
2022-10-05T22:35:43.037Z,98502.63
2022-10-05T22:39:45.070Z,98502.75
2022-10-05T22:43:49.903Z,98504.78
2022-10-05T22:47:52.008Z,98509.41
2022-10-05T22:51:54.845Z,98519.81
2022-10-05T22:55:56.918Z,98524.63
2022-10-05T22:59:58.876Z,98519.91
2022-10-05T23:04:01.233Z,98520.38
2022-10-05T23:08:04.263Z,98522.75
2022-10-05T23:12:06.434Z,98529.72
2022-10-05T23:16:11.145Z,98537.59
2022-10-05T23:20:13.269Z,98545.75
2022-10-05T23:24:15.318Z,98542.00
2022-10-05T23:28:17.808Z,98542.50
2022-10-05T23:32:19.852Z,98534.03
2022-10-05T23:36:32.744Z,98539.38
2022-10-05T23:40:34.739Z,98530.72
2022-10-05T23:44:36.734Z,98533.63
2022-10-05T23:48:39.536Z,98526.78
2022-10-05T23:52:41.512Z,98529.91
2022-10-05T23:56:43.530Z,98535.63
